Time;durP1;ratioP1;P1;durP2;ratioP2;P2;SDS_P1;SDS_P2;PMS_P1;PMS_P2;Temp;Humidity;BMP_temperature;BMP_pressure;BME280_temperature;BME280_humidity;BME280_pressure;Samples;Min_cycle;Max_cycle;Signal;HPM_P1;HPM_P2
2023/09/05 00:01:10;;;;;;;2.30;1.23;;;;;;;;;;5027431;28;20045;-58
2023/09/05 00:03:37;;;;;;;1.20;1.10;;;;;;;;;;5026349;28;20061;-58
2023/09/05 00:06:10;;;;;;;1.50;1.40;;;;;;;;;;5026371;28;20037;-58
2023/09/05 00:08:36;;;;;;;1.40;1.30;;;;;;;;;;5023077;28;20133;-59
2023/09/05 00:11:02;;;;;;;1.52;1.38;;;;;;;;;;5027217;28;20045;-58
2023/09/05 00:13:28;;;;;;;1.85;1.75;;;;;;;;;;5025626;28;20045;-59
2023/09/05 00:15:54;;;;;;;1.40;1.30;;;;;;;;;;5026628;28;20045;-58
2023/09/05 00:18:20;;;;;;;1.33;1.23;;;;;;;;;;5027583;28;20074;-58
2023/09/05 00:20:48;;;;;;;1.00;1.00;;;;;;;;;;5021941;28;20102;-59
2023/09/05 00:23:16;;;;;;;1.23;1.13;;;;;;;;;;5023998;28;20060;-59
2023/09/05 00:25:42;;;;;;;1.00;1.00;;;;;;;;;;5026031;28;20045;-58
2023/09/05 00:28:08;;;;;;;1.00;1.00;;;;;;;;;;5025774;28;20073;-58
2023/09/05 00:30:34;;;;;;;1.10;1.00;;;;;;;;;;5026732;28;20045;-58
2023/09/05 00:33:01;;;;;;;0.80;0.80;;;;;;;;;;5026449;28;20045;-59
2023/09/05 00:35:27;;;;;;;1.30;1.15;;;;;;;;;;5026074;28;20060;-58
2023/09/05 00:37:54;;;;;;;1.10;1.00;;;;;;;;;;5027322;28;20461;-59
2023/09/05 00:40:20;;;;;;;0.90;0.90;;;;;;;;;;5025538;28;20135;-59
2023/09/05 00:42:47;;;;;;;1.20;1.10;;;;;;;;;;5026391;28;20033;-58
2023/09/05 00:45:13;;;;;;;0.90;0.90;;;;;;;;;;5026304;28;20067;-59
2023/09/05 00:47:40;;;;;;;1.17;0.95;;;;;;;;;;5024350;28;20545;-59
2023/09/05 00:50:07;;;;;;;1.30;1.20;;;;;;;;;;5025470;28;20045;-58
2023/09/05 00:52:34;;;;;;;0.80;0.80;;;;;;;;;;5025621;28;20886;-59
2023/09/05 00:55:00;;;;;;;0.95;0.95;;;;;;;;;;5023874;28;20493;-59
2023/09/05 00:57:26;;;;;;;1.33;1.23;;;;;;;;;;5025186;28;20048;-58
2023/09/05 00:59:52;;;;;;;1.70;1.30;;;;;;;;;;5026770;28;20048;-59
2023/09/05 01:02:18;;;;;;;1.45;1.35;;;;;;;;;;5027249;28;20052;-59
2023/09/05 01:04:44;;;;;;;1.33;1.23;;;;;;;;;;5027165;28;20034;-59
2023/09/05 01:07:14;;;;;;;1.30;1.20;;;;;;;;;;5026893;28;20053;-58
2023/09/05 01:09:43;;;;;;;1.40;1.30;;;;;;;;;;5026305;28;20053;-58
2023/09/05 01:12:09;;;;;;;1.02;1.02;;;;;;;;;;5025137;28;20225;-59
2023/09/05 01:14:35;;;;;;;1.15;1.05;;;;;;;;;;5025596;28;20120;-58
2023/09/05 01:17:01;;;;;;;1.27;1.17;;;;;;;;;;5025459;28;20053;-58
2023/09/05 01:19:28;;;;;;;1.20;1.20;;;;;;;;;;5024101;28;20444;-58
2023/09/05 01:22:13;;;;;;;1.23;1.13;;;;;;;;;;5026131;28;20048;-59
2023/09/05 01:24:40;;;;;;;1.10;1.00;;;;;;;;;;5024023;28;20044;-59
2023/09/05 01:27:07;;;;;;;2.13;1.40;;;;;;;;;;5025785;28;20402;-58
2023/09/05 01:29:38;;;;;;;1.30;1.20;;;;;;;;;;5025015;28;20049;-58
2023/09/05 01:32:04;;;;;;;1.50;1.40;;;;;;;;;;5023912;28;20199;-58
2023/09/05 01:34:31;;;;;;;1.20;1.10;;;;;;;;;;5025383;28;20037;-58
2023/09/05 01:36:57;;;;;;;1.38;1.15;;;;;;;;;;5025469;28;20037;-58
2023/09/05 01:39:23;;;;;;;1.00;1.00;;;;;;;;;;5025296;28;20406;-58
2023/09/05 01:41:50;;;;;;;1.58;0.93;;;;;;;;;;5025925;28;20045;-58
2023/09/05 01:44:16;;;;;;;1.40;1.30;;;;;;;;;;5024592;28;20043;-58
2023/09/05 01:46:42;;;;;;;1.33;1.23;;;;;;;;;;5024601;28;20061;-58
2023/09/05 01:49:09;;;;;;;1.60;1.50;;;;;;;;;;5024516;28;20056;-58
2023/09/05 01:51:35;;;;;;;1.60;1.50;;;;;;;;;;5024688;28;20041;-59
2023/09/05 01:54:01;;;;;;;1.70;1.60;;;;;;;;;;5025584;28;20673;-58
2023/09/05 01:56:27;;;;;;;1.20;1.10;;;;;;;;;;5025333;28;20084;-58
2023/09/05 01:58:53;;;;;;;1.35;1.25;;;;;;;;;;5024407;28;20042;-58
2023/09/05 02:01:19;;;;;;;1.50;1.40;;;;;;;;;;5024899;28;20546;-58
2023/09/05 02:03:46;;;;;;;1.38;1.27;;;;;;;;;;5024834;28;20049;-58
2023/09/05 02:06:16;;;;;;;1.40;1.30;;;;;;;;;;5024180;28;20082;-58
2023/09/05 02:08:42;;;;;;;1.00;1.00;;;;;;;;;;5024438;28;20041;-59
2023/09/05 02:11:09;;;;;;;1.30;1.15;;;;;;;;;;5026564;28;20060;-58
2023/09/05 02:13:36;;;;;;;1.33;1.23;;;;;;;;;;5024668;28;20055;-58
2023/09/05 02:16:02;;;;;;;1.30;1.20;;;;;;;;;;5025173;28;20048;-58
2023/09/05 02:18:28;;;;;;;1.45;1.35;;;;;;;;;;5024481;28;20037;-58
2023/09/05 02:21:01;;;;;;;1.80;1.70;;;;;;;;;;5021729;28;20573;-58
2023/09/05 02:23:27;;;;;;;1.40;1.30;;;;;;;;;;5024457;28;20052;-58
2023/09/05 02:26:00;;;;;;;1.45;1.35;;;;;;;;;;5023077;28;20029;-59
2023/09/05 02:28:26;;;;;;;1.30;1.20;;;;;;;;;;5023817;28;20045;-58
2023/09/05 02:30:53;;;;;;;1.63;1.52;;;;;;;;;;5019604;28;20714;-58
2023/09/05 02:33:19;;;;;;;1.40;1.30;;;;;;;;;;5023881;28;20428;-58
2023/09/05 02:35:45;;;;;;;2.40;1.60;;;;;;;;;;5023041;28;20156;-59
2023/09/05 02:38:13;;;;;;;1.50;1.40;;;;;;;;;;5025086;28;20042;-59
2023/09/05 02:40:49;;;;;;;1.50;1.40;;;;;;;;;;5023268;28;20041;-58
2023/09/05 02:43:15;;;;;;;1.30;1.10;;;;;;;;;;5024707;28;20049;-58
2023/09/05 02:45:41;;;;;;;1.23;1.13;;;;;;;;;;5023423;28;20071;-58
2023/09/05 02:48:08;;;;;;;1.50;1.40;;;;;;;;;;5023211;28;20058;-59
2023/09/05 02:50:34;;;;;;;1.42;1.33;;;;;;;;;;5024919;28;20087;-58
2023/09/05 02:53:00;;;;;;;1.58;1.48;;;;;;;;;;5025343;28;20038;-58
2023/09/05 02:55:26;;;;;;;1.65;1.55;;;;;;;;;;5021372;28;20551;-58
2023/09/05 02:57:52;;;;;;;1.60;1.50;;;;;;;;;;5025645;28;20033;-59
2023/09/05 03:00:20;;;;;;;1.50;1.40;;;;;;;;;;5024694;28;20045;-58
2023/09/05 03:02:49;;;;;;;1.40;1.30;;;;;;;;;;5023673;28;20504;-59
2023/09/05 03:05:16;;;;;;;1.50;1.40;;;;;;;;;;5023637;28;20405;-58
2023/09/05 03:07:42;;;;;;;1.45;1.35;;;;;;;;;;5024302;28;20103;-59
2023/09/05 03:10:08;;;;;;;1.45;1.35;;;;;;;;;;5022739;28;20037;-58
2023/09/05 03:12:34;;;;;;;1.55;1.45;;;;;;;;;;5024677;28;20041;-58
2023/09/05 03:15:00;;;;;;;1.20;1.10;;;;;;;;;;5024460;28;20042;-59
2023/09/05 03:17:26;;;;;;;1.40;1.30;;;;;;;;;;5024824;28;20037;-58
2023/09/05 03:19:52;;;;;;;1.48;1.35;;;;;;;;;;5025542;28;20034;-58
2023/09/05 03:22:18;;;;;;;0.90;0.90;;;;;;;;;;5023821;28;20038;-59
2023/09/05 03:24:44;;;;;;;1.10;1.10;;;;;;;;;;5022211;28;20405;-58
2023/09/05 03:27:13;;;;;;;1.73;1.30;;;;;;;;;;5022913;28;20617;-58
2023/09/05 03:29:39;;;;;;;1.13;1.02;;;;;;;;;;5022422;28;20128;-59
2023/09/05 03:32:05;;;;;;;1.23;1.13;;;;;;;;;;5022101;28;20160;-58
2023/09/05 03:34:32;;;;;;;1.13;1.02;;;;;;;;;;5021808;28;20529;-58
2023/09/05 03:36:58;;;;;;;1.20;1.10;;;;;;;;;;5023799;28;20044;-58
2023/09/05 03:39:24;;;;;;;1.13;1.08;;;;;;;;;;5022347;28;20147;-59
2023/09/05 03:41:50;;;;;;;1.25;1.13;;;;;;;;;;5025585;28;20111;-59
2023/09/05 03:44:16;;;;;;;0.90;0.90;;;;;;;;;;5022308;28;20084;-58
2023/09/05 03:46:44;;;;;;;1.10;1.00;;;;;;;;;;5023837;28;20058;-58
2023/09/05 03:49:10;;;;;;;1.20;1.10;;;;;;;;;;5025209;28;20131;-59
2023/09/05 03:51:36;;;;;;;1.27;1.17;;;;;;;;;;5022686;28;20052;-58
2023/09/05 03:54:02;;;;;;;0.98;0.98;;;;;;;;;;5022404;28;20041;-58
2023/09/05 03:56:28;;;;;;;1.05;0.95;;;;;;;;;;5023492;28;20132;-58
2023/09/05 03:58:54;;;;;;;1.20;1.10;;;;;;;;;;5022762;28;20029;-58
2023/09/05 04:01:20;;;;;;;1.50;1.40;;;;;;;;;;5023455;28;20493;-59
2023/09/05 04:03:46;;;;;;;1.17;1.08;;;;;;;;;;5021567;28;20397;-59
2023/09/05 04:06:12;;;;;;;0.80;0.80;;;;;;;;;;5022996;28;20049;-59
2023/09/05 04:08:38;;;;;;;1.48;1.33;;;;;;;;;;5023364;28;20099;-58
2023/09/05 04:11:04;;;;;;;1.23;1.13;;;;;;;;;;5024378;28;20451;-58
2023/09/05 04:13:31;;;;;;;1.48;1.38;;;;;;;;;;5024458;28;20037;-58
2023/09/05 04:16:01;;;;;;;1.65;1.52;;;;;;;;;;5022856;28;20037;-58
2023/09/05 04:18:27;;;;;;;1.70;1.60;;;;;;;;;;5022649;28;20977;-59
2023/09/05 04:21:00;;;;;;;1.60;1.50;;;;;;;;;;5024025;28;20132;-58
2023/09/05 04:23:26;;;;;;;1.50;1.40;;;;;;;;;;5024391;28;20045;-58
2023/09/05 04:25:59;;;;;;;1.77;1.40;;;;;;;;;;5024294;28;20037;-58
2023/09/05 04:28:26;;;;;;;1.55;1.45;;;;;;;;;;5024492;28;20061;-58
2023/09/05 04:30:55;;;;;;;1.45;1.35;;;;;;;;;;5024931;28;20042;-58
2023/09/05 04:33:22;;;;;;;1.50;1.40;;;;;;;;;;5023226;28;20041;-59
2023/09/05 04:35:48;;;;;;;1.40;1.30;;;;;;;;;;5025702;28;20092;-58
2023/09/05 04:38:14;;;;;;;1.50;1.40;;;;;;;;;;5027476;28;20045;-58
2023/09/05 04:40:40;;;;;;;1.40;1.30;;;;;;;;;;5026447;28;20527;-58
2023/09/05 04:43:06;;;;;;;1.27;1.17;;;;;;;;;;5027359;28;20030;-58
2023/09/05 04:45:32;;;;;;;2.40;1.63;;;;;;;;;;5027032;28;20072;-58
2023/09/05 04:47:58;;;;;;;1.60;1.50;;;;;;;;;;5024433;28;20053;-58
2023/09/05 04:50:24;;;;;;;1.38;1.27;;;;;;;;;;5027638;28;20056;-58
2023/09/05 04:52:50;;;;;;;1.52;1.42;;;;;;;;;;5027121;28;20121;-59
2023/09/05 04:55:16;;;;;;;1.77;1.63;;;;;;;;;;5022586;28;20084;-58
2023/09/05 04:57:42;;;;;;;1.42;1.30;;;;;;;;;;5027139;28;20050;-58
2023/09/05 05:00:09;;;;;;;1.40;1.30;;;;;;;;;;5027222;28;20436;-58
2023/09/05 05:02:35;;;;;;;1.25;1.15;;;;;;;;;;5026080;28;20679;-58
2023/09/05 05:05:01;;;;;;;1.60;1.50;;;;;;;;;;5027273;28;20044;-58
2023/09/05 05:07:28;;;;;;;2.08;1.88;;;;;;;;;;5026228;28;20034;-57
2023/09/05 05:09:54;;;;;;;2.03;1.80;;;;;;;;;;5027492;28;20646;-59
2023/09/05 05:12:20;;;;;;;1.73;1.63;;;;;;;;;;5026769;28;20046;-58
2023/09/05 05:14:46;;;;;;;1.70;1.60;;;;;;;;;;5025006;28;20085;-58
2023/09/05 05:17:15;;;;;;;1.70;1.60;;;;;;;;;;5026558;28;20044;-58
2023/09/05 05:19:41;;;;;;;2.13;2.03;;;;;;;;;;5026276;28;20053;-58
2023/09/05 05:22:07;;;;;;;1.95;1.75;;;;;;;;;;5024994;28;20091;-58
2023/09/05 05:24:33;;;;;;;1.90;1.80;;;;;;;;;;5025615;28;20045;-58
2023/09/05 05:26:59;;;;;;;1.90;1.60;;;;;;;;;;5026622;28;20037;-58
2023/09/05 05:29:26;;;;;;;1.83;1.73;;;;;;;;;;5023973;28;20140;-58
2023/09/05 05:31:52;;;;;;;1.60;1.50;;;;;;;;;;5025875;28;20137;-59
2023/09/05 05:34:18;;;;;;;1.40;1.30;;;;;;;;;;5026451;28;20068;-58
2023/09/05 05:36:44;;;;;;;1.20;1.10;;;;;;;;;;5024206;28;20123;-59
2023/09/05 05:39:11;;;;;;;1.40;1.27;;;;;;;;;;5026532;28;20818;-58
2023/09/05 05:41:37;;;;;;;1.40;1.30;;;;;;;;;;5026103;28;20425;-59
2023/09/05 05:44:03;;;;;;;0.95;0.93;;;;;;;;;;5025861;28;20499;-58
2023/09/05 05:46:32;;;;;;;1.10;1.00;;;;;;;;;;5025666;28;20124;-58
2023/09/05 05:48:58;;;;;;;1.33;1.23;;;;;;;;;;5024935;28;20115;-58
2023/09/05 05:51:25;;;;;;;0.95;0.95;;;;;;;;;;5025291;28;20136;-57
2023/09/05 05:53:52;;;;;;;1.02;1.00;;;;;;;;;;5026082;28;20041;-58
2023/09/05 05:56:18;;;;;;;1.15;1.05;;;;;;;;;;5026091;28;20041;-58
2023/09/05 05:58:44;;;;;;;0.90;0.90;;;;;;;;;;5025257;28;20037;-59
2023/09/05 06:01:11;;;;;;;0.70;0.70;;;;;;;;;;5024265;28;20375;-58
2023/09/05 06:03:37;;;;;;;0.80;0.80;;;;;;;;;;5025780;28;20033;-58
2023/09/05 06:06:03;;;;;;;0.70;0.70;;;;;;;;;;5024510;28;20401;-58
2023/09/05 06:08:29;;;;;;;1.13;0.90;;;;;;;;;;5022748;28;20689;-58
2023/09/05 06:10:56;;;;;;;0.70;0.70;;;;;;;;;;5022605;28;20037;-58
2023/09/05 06:13:22;;;;;;;0.73;0.73;;;;;;;;;;5025701;28;20038;-58
2023/09/05 06:15:48;;;;;;;0.60;0.60;;;;;;;;;;5024730;28;20065;-59
2023/09/05 06:18:14;;;;;;;0.70;0.70;;;;;;;;;;5024477;28;20049;-58
2023/09/05 06:20:40;;;;;;;0.60;0.60;;;;;;;;;;5024916;28;20148;-57
2023/09/05 06:23:06;;;;;;;0.90;0.90;;;;;;;;;;5026933;28;20464;-58
2023/09/05 06:25:32;;;;;;;1.10;1.00;;;;;;;;;;5026110;28;20040;-58
2023/09/05 06:27:59;;;;;;;1.05;0.95;;;;;;;;;;5025540;28;20041;-58
2023/09/05 06:30:25;;;;;;;0.52;0.52;;;;;;;;;;5023321;28;20679;-58
2023/09/05 06:32:51;;;;;;;0.75;0.75;;;;;;;;;;5021252;28;20048;-58
2023/09/05 06:35:17;;;;;;;0.70;0.70;;;;;;;;;;5025924;28;20041;-58
2023/09/05 06:37:43;;;;;;;0.40;0.40;;;;;;;;;;5026429;28;20025;-59
2023/09/05 06:40:12;;;;;;;0.70;0.70;;;;;;;;;;5017619;28;20041;-58
2023/09/05 06:42:42;;;;;;;0.50;0.50;;;;;;;;;;5016433;28;20069;-58
2023/09/05 06:45:08;;;;;;;0.65;0.55;;;;;;;;;;5017622;28;20037;-57
2023/09/05 06:47:34;;;;;;;0.30;0.30;;;;;;;;;;5021126;28;20108;-59
2023/09/05 06:50:00;;;;;;;0.68;0.47;;;;;;;;;;5025320;28;20493;-59
2023/09/05 06:52:26;;;;;;;0.60;0.60;;;;;;;;;;5023315;28;20034;-58
2023/09/05 06:54:52;;;;;;;0.80;0.80;;;;;;;;;;5023743;28;20037;-58
2023/09/05 06:57:20;;;;;;;0.90;0.90;;;;;;;;;;5020301;28;20057;-59
2023/09/05 06:59:46;;;;;;;0.90;0.90;;;;;;;;;;5024509;28;20403;-57
2023/09/05 07:02:12;;;;;;;1.50;1.40;;;;;;;;;;5024981;28;20045;-59
2023/09/05 07:04:38;;;;;;;1.55;1.45;;;;;;;;;;5025680;28;20120;-58
2023/09/05 07:07:04;;;;;;;1.90;1.77;;;;;;;;;;5025133;28;20129;-58
2023/09/05 07:09:31;;;;;;;1.58;1.48;;;;;;;;;;5025506;28;20125;-58
2023/09/05 07:11:57;;;;;;;1.30;1.20;;;;;;;;;;5025069;28;20045;-57
2023/09/05 07:14:23;;;;;;;1.42;1.33;;;;;;;;;;5016676;28;20029;-61
2023/09/05 07:16:49;;;;;;;1.40;1.30;;;;;;;;;;5025328;28;20064;-60
2023/09/05 07:19:17;;;;;;;0.95;0.95;;;;;;;;;;5025367;28;20060;-62
2023/09/05 07:21:43;;;;;;;0.70;0.70;;;;;;;;;;5024746;28;20688;-58
2023/09/05 07:24:13;;;;;;;0.55;0.55;;;;;;;;;;5017474;28;20213;-59
2023/09/05 07:26:39;;;;;;;0.40;0.40;;;;;;;;;;5017847;28;20037;-58
2023/09/05 07:29:06;;;;;;;0.80;0.80;;;;;;;;;;5023653;28;20038;-58
2023/09/05 07:31:32;;;;;;;0.80;0.80;;;;;;;;;;5024081;28;20417;-59
2023/09/05 07:33:58;;;;;;;0.75;0.70;;;;;;;;;;5024478;28;20158;-59
2023/09/05 07:36:24;;;;;;;1.40;1.23;;;;;;;;;;5022836;28;20037;-59
2023/09/05 07:38:50;;;;;;;1.60;1.50;;;;;;;;;;5024968;28;20041;-59
2023/09/05 07:41:16;;;;;;;1.17;1.08;;;;;;;;;;5024769;28;20041;-59
2023/09/05 07:43:42;;;;;;;1.20;1.10;;;;;;;;;;5017483;28;20046;-59
2023/09/05 07:46:11;;;;;;;0.65;0.65;;;;;;;;;;5023946;28;20037;-58
2023/09/05 07:48:37;;;;;;;1.63;1.33;;;;;;;;;;5025001;28;20178;-59
2023/09/05 07:51:05;;;;;;;1.50;1.30;;;;;;;;;;5024661;28;20573;-58
2023/09/05 07:53:34;;;;;;;1.65;1.55;;;;;;;;;;5025381;28;20060;-58
2023/09/05 07:56:00;;;;;;;1.30;1.20;;;;;;;;;;5025344;28;20045;-58
2023/09/05 07:58:27;;;;;;;1.40;1.30;;;;;;;;;;5025006;28;20057;-59
2023/09/05 08:00:53;;;;;;;1.52;1.42;;;;;;;;;;5016837;28;20570;-59
2023/09/05 08:03:22;;;;;;;1.15;1.05;;;;;;;;;;5021948;28;20079;-58
2023/09/05 08:05:50;;;;;;;1.42;1.33;;;;;;;;;;5025392;28;20033;-58
2023/09/05 08:08:16;;;;;;;1.77;1.67;;;;;;;;;;5015189;28;20041;-59
2023/09/05 08:10:42;;;;;;;1.63;1.52;;;;;;;;;;5027023;28;20037;-58
2023/09/05 08:13:10;;;;;;;2.28;2.08;;;;;;;;;;5028854;28;20048;-59
2023/09/05 08:15:36;;;;;;;3.00;2.70;;;;;;;;;;5025895;28;20045;-59
2023/09/05 08:18:05;;;;;;;2.35;2.15;;;;;;;;;;5027942;28;20370;-59
2023/09/05 08:20:31;;;;;;;2.05;1.70;;;;;;;;;;5026947;28;20041;-59
2023/09/05 08:22:57;;;;;;;1.35;1.25;;;;;;;;;;5028981;28;20088;-58
2023/09/05 08:25:24;;;;;;;1.35;1.25;;;;;;;;;;5024931;28;20096;-58
2023/09/05 08:27:53;;;;;;;1.45;1.35;;;;;;;;;;5028382;28;20044;-58
2023/09/05 08:30:21;;;;;;;1.10;1.00;;;;;;;;;;5028122;28;20064;-58
2023/09/05 08:32:47;;;;;;;0.85;0.80;;;;;;;;;;5027509;28;20460;-58
2023/09/05 08:35:13;;;;;;;1.55;1.00;;;;;;;;;;5025478;28;20041;-59
2023/09/05 08:37:39;;;;;;;0.93;0.82;;;;;;;;;;5027509;28;20482;-59
2023/09/05 08:40:05;;;;;;;0.60;0.60;;;;;;;;;;5025206;28;20092;-58
2023/09/05 08:42:32;;;;;;;0.60;0.60;;;;;;;;;;5026643;28;20481;-58
2023/09/05 08:45:02;;;;;;;0.95;0.90;;;;;;;;;;5026386;28;20029;-59
2023/09/05 08:47:32;;;;;;;1.83;1.73;;;;;;;;;;5022365;28;20069;-59
2023/09/05 08:50:04;;;;;;;1.35;1.25;;;;;;;;;;5028590;28;20049;-59
2023/09/05 08:52:32;;;;;;;1.20;1.10;;;;;;;;;;5026507;28;20723;-59
2023/09/05 08:54:59;;;;;;;1.20;0.85;;;;;;;;;;5027250;28;20083;-59
2023/09/05 08:57:26;;;;;;;0.90;0.90;;;;;;;;;;5024717;28;20053;-59
2023/09/05 08:59:53;;;;;;;3.08;1.33;;;;;;;;;;5026644;28;20241;-58
2023/09/05 09:02:19;;;;;;;1.52;1.42;;;;;;;;;;5026748;28;20045;-59
2023/09/05 09:04:57;;;;;;;1.63;1.40;;;;;;;;;;5027114;28;20124;-58
2023/09/05 09:07:27;;;;;;;1.98;1.88;;;;;;;;;;5021010;28;20095;-59
2023/09/05 09:09:57;;;;;;;1.67;1.58;;;;;;;;;;5023717;28;20045;-59
2023/09/05 09:12:33;;;;;;;1.40;1.30;;;;;;;;;;5024576;28;20083;-58
2023/09/05 09:15:17;;;;;;;1.27;1.17;;;;;;;;;;5023771;28;20041;-58
2023/09/05 09:17:47;;;;;;;1.83;1.63;;;;;;;;;;5019131;28;20110;-58
2023/09/05 09:20:13;;;;;;;1.55;1.45;;;;;;;;;;5024837;28;20493;-58
2023/09/05 09:22:40;;;;;;;1.10;1.00;;;;;;;;;;5025914;28;20037;-58
2023/09/05 09:25:14;;;;;;;1.50;1.40;;;;;;;;;;5027326;28;20041;-58
2023/09/05 09:27:42;;;;;;;1.75;1.58;;;;;;;;;;5024992;28;20044;-59
2023/09/05 09:30:11;;;;;;;1.30;1.20;;;;;;;;;;5025435;28;20052;-59
2023/09/05 09:32:40;;;;;;;1.20;1.10;;;;;;;;;;5024041;28;20045;-59
2023/09/05 09:35:07;;;;;;;1.10;1.00;;;;;;;;;;5026284;28;20045;-59
2023/09/05 09:37:34;;;;;;;1.08;1.02;;;;;;;;;;5017032;28;20041;-59
2023/09/05 09:40:01;;;;;;;1.40;1.30;;;;;;;;;;5015032;28;20053;-59
2023/09/05 09:42:27;;;;;;;1.73;1.63;;;;;;;;;;5014641;28;20030;-59
2023/09/05 09:44:53;;;;;;;2.58;1.30;;;;;;;;;;5025913;28;20095;-60
2023/09/05 09:47:19;;;;;;;2.92;1.70;;;;;;;;;;5025982;28;20065;-59
2023/09/05 09:49:48;;;;;;;1.30;1.20;;;;;;;;;;5025206;28;20061;-59
2023/09/05 09:52:15;;;;;;;1.25;1.00;;;;;;;;;;5025670;28;20045;-59
2023/09/05 09:54:44;;;;;;;2.42;1.55;;;;;;;;;;5026723;28;20037;-59
2023/09/05 09:57:12;;;;;;;1.60;1.50;;;;;;;;;;5022001;28;20053;-59
2023/09/05 09:59:43;;;;;;;1.83;1.70;;;;;;;;;;5027048;28;20700;-60
2023/09/05 10:02:10;;;;;;;1.35;1.25;;;;;;;;;;5019532;28;20063;-58
2023/09/05 10:04:37;;;;;;;1.13;1.02;;;;;;;;;;5025757;28;20044;-61
2023/09/05 10:07:07;;;;;;;1.23;1.15;;;;;;;;;;5022062;28;20505;-59
2023/09/05 10:09:39;;;;;;;1.27;1.17;;;;;;;;;;5020517;28;20064;-59
2023/09/05 10:12:05;;;;;;;1.52;1.42;;;;;;;;;;5023295;28;20034;-59
2023/09/05 10:14:31;;;;;;;1.35;1.10;;;;;;;;;;5026032;28;20810;-59
2023/09/05 10:16:58;;;;;;;3.03;1.30;;;;;;;;;;5026159;28;20037;-59
2023/09/05 10:19:26;;;;;;;1.00;1.00;;;;;;;;;;5025692;28;20087;-59
2023/09/05 10:21:55;;;;;;;1.48;1.38;;;;;;;;;;5025899;28;20130;-59
2023/09/05 10:24:21;;;;;;;0.98;0.93;;;;;;;;;;5025269;28;20543;-60
2023/09/05 10:26:47;;;;;;;1.40;1.30;;;;;;;;;;5025884;28;20448;-60
2023/09/05 10:29:33;;;;;;;1.17;1.08;;;;;;;;;;5021524;28;20481;-59
2023/09/05 10:31:59;;;;;;;0.93;0.93;;;;;;;;;;5020066;28;20519;-60
2023/09/05 10:34:44;;;;;;;1.10;0.98;;;;;;;;;;5025645;28;20122;-59
2023/09/05 10:37:10;;;;;;;1.33;1.10;;;;;;;;;;5025948;28;20049;-60
2023/09/05 10:39:36;;;;;;;1.50;1.40;;;;;;;;;;5024749;28;20461;-59
2023/09/05 10:42:03;;;;;;;1.02;0.93;;;;;;;;;;5025704;28;20129;-59
2023/09/05 10:44:32;;;;;;;1.38;0.93;;;;;;;;;;5026058;28;20103;-59
2023/09/05 10:47:18;;;;;;;0.88;0.80;;;;;;;;;;5025336;28;20811;-59
2023/09/05 10:49:46;;;;;;;1.67;1.10;;;;;;;;;;5019672;28;20049;-59
2023/09/05 10:52:21;;;;;;;1.60;1.13;;;;;;;;;;5018320;28;20049;-59
2023/09/05 10:54:47;;;;;;;0.75;0.75;;;;;;;;;;5023224;28;20041;-59
2023/09/05 10:57:33;;;;;;;1.63;1.00;;;;;;;;;;5025367;28;20080;-59
2023/09/05 10:59:59;;;;;;;2.63;1.15;;;;;;;;;;5021271;28;20084;-60
2023/09/05 11:02:25;;;;;;;1.45;1.35;;;;;;;;;;5024132;28;20038;-59
2023/09/05 11:04:54;;;;;;;1.35;1.00;;;;;;;;;;5022244;28;20049;-59
2023/09/05 11:07:21;;;;;;;3.33;1.55;;;;;;;;;;5022866;28;20516;-59
2023/09/05 11:09:54;;;;;;;1.15;1.05;;;;;;;;;;5025080;28;20120;-59
2023/09/05 11:12:21;;;;;;;1.48;1.20;;;;;;;;;;5015570;28;20052;-59
2023/09/05 11:14:48;;;;;;;1.20;1.08;;;;;;;;;;5018128;28;20034;-59
2023/09/05 11:17:17;;;;;;;1.17;1.08;;;;;;;;;;5022942;28;20037;-59
2023/09/05 11:19:48;;;;;;;1.30;1.20;;;;;;;;;;5024252;28;20048;-59
2023/09/05 11:22:15;;;;;;;0.90;0.90;;;;;;;;;;5019916;28;20045;-59
2023/09/05 11:24:46;;;;;;;0.90;0.90;;;;;;;;;;5022098;28;20045;-58
2023/09/05 11:27:12;;;;;;;1.10;1.00;;;;;;;;;;5020694;28;20641;-58
2023/09/05 11:29:39;;;;;;;0.60;0.60;;;;;;;;;;5021751;28;20700;-58
2023/09/05 11:32:08;;;;;;;1.00;0.90;;;;;;;;;;5017211;28;20476;-59
2023/09/05 11:34:34;;;;;;;0.80;0.80;;;;;;;;;;5015402;28;20033;-59
2023/09/05 11:37:03;;;;;;;0.90;0.88;;;;;;;;;;5020219;28;20818;-59
2023/09/05 11:39:29;;;;;;;0.80;0.80;;;;;;;;;;5013007;28;20050;-59
2023/09/05 11:41:58;;;;;;;0.68;0.68;;;;;;;;;;5021349;28;20087;-58
2023/09/05 11:44:35;;;;;;;2.03;1.17;;;;;;;;;;5017893;28;20453;-58
2023/09/05 11:47:01;;;;;;;0.40;0.40;;;;;;;;;;5023750;28;20137;-59
2023/09/05 11:49:28;;;;;;;0.60;0.60;;;;;;;;;;5025765;28;20098;-59
2023/09/05 11:51:54;;;;;;;0.68;0.68;;;;;;;;;;5025861;28;20034;-59
2023/09/05 11:54:20;;;;;;;1.30;1.10;;;;;;;;;;5026441;28;20045;-59
2023/09/05 11:56:50;;;;;;;1.40;1.08;;;;;;;;;;5024665;28;20093;-59
2023/09/05 11:59:16;;;;;;;2.05;0.90;;;;;;;;;;5028336;28;20086;-59
2023/09/05 12:01:43;;;;;;;1.45;1.05;;;;;;;;;;5023613;28;20052;-59
2023/09/05 12:04:10;;;;;;;1.08;0.90;;;;;;;;;;5025380;28;20075;-58
2023/09/05 12:06:36;;;;;;;1.63;0.90;;;;;;;;;;5028357;28;20037;-59
2023/09/05 12:09:02;;;;;;;0.80;0.80;;;;;;;;;;5027667;28;20060;-59
2023/09/05 12:11:28;;;;;;;0.70;0.70;;;;;;;;;;5028289;28;20103;-59
2023/09/05 12:13:58;;;;;;;1.70;0.90;;;;;;;;;;5027815;28;20116;-59
2023/09/05 12:16:24;;;;;;;1.95;0.98;;;;;;;;;;5027139;28;20038;-59
2023/09/05 12:19:00;;;;;;;0.52;0.52;;;;;;;;;;5025235;28;20037;-59
2023/09/05 12:21:39;;;;;;;0.73;0.70;;;;;;;;;;5029172;28;20099;-59
2023/09/05 12:24:18;;;;;;;0.95;0.85;;;;;;;;;;5024656;28;20060;-59
2023/09/05 12:26:44;;;;;;;1.05;0.95;;;;;;;;;;5026793;28;20044;-60
2023/09/05 12:29:10;;;;;;;0.60;0.60;;;;;;;;;;5024331;28;20171;-59
2023/09/05 12:31:37;;;;;;;0.65;0.60;;;;;;;;;;5027600;28;20049;-59
2023/09/05 12:34:03;;;;;;;0.80;0.75;;;;;;;;;;5016628;28;20486;-58
2023/09/05 12:36:29;;;;;;;2.35;0.70;;;;;;;;;;5022659;28;20128;-59
2023/09/05 12:38:55;;;;;;;1.45;0.90;;;;;;;;;;5029783;28;20095;-59
2023/09/05 12:41:21;;;;;;;0.75;0.70;;;;;;;;;;5030898;28;20405;-59
2023/09/05 12:43:47;;;;;;;1.10;0.90;;;;;;;;;;5027799;28;20493;-59
2023/09/05 12:46:13;;;;;;;0.57;0.57;;;;;;;;;;5027489;28;20049;-59
2023/09/05 12:48:39;;;;;;;0.77;0.77;;;;;;;;;;5026705;28;20053;-59
2023/09/05 12:51:05;;;;;;;0.70;0.70;;;;;;;;;;5027793;28;20569;-64
2023/09/05 12:53:33;;;;;;;0.82;0.80;;;;;;;;;;5027484;28;20041;-59
2023/09/05 12:56:00;;;;;;;0.70;0.70;;;;;;;;;;5022455;28;20113;-59
2023/09/05 12:58:27;;;;;;;0.93;0.80;;;;;;;;;;5028591;28;20045;-59
2023/09/05 13:00:53;;;;;;;0.60;0.60;;;;;;;;;;5018047;28;20050;-59
2023/09/05 13:03:19;;;;;;;0.60;0.60;;;;;;;;;;5025792;28;20041;-59
2023/09/05 13:05:45;;;;;;;0.70;0.63;;;;;;;;;;5026070;28;20029;-59
2023/09/05 13:08:11;;;;;;;1.90;1.00;;;;;;;;;;5027823;28;20053;-59
2023/09/05 13:10:37;;;;;;;1.25;0.90;;;;;;;;;;5023400;28;20124;-59
2023/09/05 13:13:03;;;;;;;0.75;0.75;;;;;;;;;;5018433;28;20041;-59
2023/09/05 13:15:29;;;;;;;0.93;0.70;;;;;;;;;;5022676;28;20041;-59
2023/09/05 13:17:55;;;;;;;0.80;0.80;;;;;;;;;;5021089;28;20041;-59
2023/09/05 13:20:22;;;;;;;1.15;0.98;;;;;;;;;;5023295;28;21129;-59
2023/09/05 13:22:48;;;;;;;1.05;1.05;;;;;;;;;;5026443;28;20076;-59
2023/09/05 13:25:24;;;;;;;1.15;0.93;;;;;;;;;;5023526;28;20042;-59
2023/09/05 13:27:50;;;;;;;0.65;0.65;;;;;;;;;;5022872;28;20052;-59
2023/09/05 13:30:17;;;;;;;0.75;0.75;;;;;;;;;;5026103;28;20099;-59
2023/09/05 13:32:43;;;;;;;0.63;0.63;;;;;;;;;;5023180;28;20567;-58
2023/09/05 13:35:09;;;;;;;0.60;0.60;;;;;;;;;;5020766;28;20045;-59
2023/09/05 13:37:35;;;;;;;0.80;0.80;;;;;;;;;;5024728;28;20053;-59
2023/09/05 13:40:02;;;;;;;0.60;0.60;;;;;;;;;;5024445;28;20137;-60
2023/09/05 13:42:28;;;;;;;1.55;0.63;;;;;;;;;;5024783;28;20555;-59
2023/09/05 13:44:54;;;;;;;0.60;0.60;;;;;;;;;;5023357;28;20041;-59
2023/09/05 13:47:21;;;;;;;0.45;0.45;;;;;;;;;;5018180;28;20703;-59
2023/09/05 13:49:47;;;;;;;0.98;0.63;;;;;;;;;;5019594;28;20048;-59
2023/09/05 13:52:13;;;;;;;1.85;1.00;;;;;;;;;;5019902;28;20049;-60
2023/09/05 13:54:39;;;;;;;1.15;0.70;;;;;;;;;;5026990;28;20094;-59
2023/09/05 13:57:07;;;;;;;0.63;0.63;;;;;;;;;;5025737;28;20041;-59
2023/09/05 13:59:33;;;;;;;1.15;0.90;;;;;;;;;;5026920;28;20060;-59
2023/09/05 14:01:59;;;;;;;0.98;0.80;;;;;;;;;;5026522;28;20502;-59
2023/09/05 14:04:25;;;;;;;0.60;0.60;;;;;;;;;;5026781;28;20401;-59
2023/09/05 14:06:52;;;;;;;1.35;0.85;;;;;;;;;;5026148;28;20387;-59
2023/09/05 14:09:18;;;;;;;0.80;0.80;;;;;;;;;;5025068;28;20830;-59
2023/09/05 14:11:44;;;;;;;0.65;0.65;;;;;;;;;;5026727;28;20060;-59
2023/09/05 14:14:13;;;;;;;0.52;0.52;;;;;;;;;;5025648;28;20124;-59
2023/09/05 14:16:39;;;;;;;0.65;0.60;;;;;;;;;;5022404;28;20675;-59
2023/09/05 14:19:05;;;;;;;1.00;0.65;;;;;;;;;;5020446;28;20048;-59
2023/09/05 14:21:31;;;;;;;0.40;0.40;;;;;;;;;;5027125;28;20041;-59
2023/09/05 14:23:57;;;;;;;0.60;0.60;;;;;;;;;;5025792;28;20461;-59
2023/09/05 14:26:25;;;;;;;0.50;0.50;;;;;;;;;;5026338;28;20053;-60
2023/09/05 14:28:51;;;;;;;0.50;0.50;;;;;;;;;;5026354;28;20450;-59
2023/09/05 14:31:19;;;;;;;0.93;0.50;;;;;;;;;;5022243;28;20603;-59
2023/09/05 14:33:45;;;;;;;0.60;0.60;;;;;;;;;;5025315;28;20052;-59
2023/09/05 14:36:11;;;;;;;1.08;0.75;;;;;;;;;;5022061;28;20386;-59
2023/09/05 14:38:37;;;;;;;1.00;0.90;;;;;;;;;;5025088;28;20045;-59
2023/09/05 14:41:03;;;;;;;0.80;0.80;;;;;;;;;;5024239;28;20041;-59
2023/09/05 14:43:30;;;;;;;0.70;0.70;;;;;;;;;;5026492;28;20048;-58